Time;durP1;ratioP1;P1;durP2;ratioP2;P2;SDS_P1;SDS_P2;PMS_P1;PMS_P2;Temp;Humidity;BMP_temperature;BMP_pressure;BME280_temperature;BME280_humidity;BME280_pressure;Samples;Min_cycle;Max_cycle;Signal;HPM_P1;HPM_P2
2022/10/21 00:00:02;;;;;;;;;;;;;;;10.84;48.48;100703.56;4941407;28;98105;-64
2022/10/21 00:02:28;;;;;;;;;;;;;;;10.83;48.26;100705.44;4953890;28;98046;-69
2022/10/21 00:04:54;;;;;;;;;;;;;;;10.87;48.67;100703.03;4954172;28;98102;-65
2022/10/21 00:07:20;;;;;;;;;;;;;;;10.88;48.17;100701.97;4929299;28;98013;-69
2022/10/21 00:09:47;;;;;;;;;;;;;;;10.90;48.86;100702.53;4958049;28;98298;-69
2022/10/21 00:12:13;;;;;;;;;;;;;;;10.91;48.52;100717.63;4945452;28;98365;-65
2022/10/21 00:14:39;;;;;;;;;;;;;;;10.91;48.49;100715.72;4938358;28;98103;-69
2022/10/21 00:17:05;;;;;;;;;;;;;;;10.93;48.56;100710.91;4943276;28;122821;-64
2022/10/21 00:19:32;;;;;;;;;;;;;;;10.93;48.55;100721.69;4947671;28;98411;-69
2022/10/21 00:21:59;;;;;;;;;;;;;;;10.95;48.84;100699.84;4951611;28;98028;-65
2022/10/21 00:24:28;;;;;;;;;;;;;;;10.95;48.64;100716.81;4944433;28;97901;-69
2022/10/21 00:26:55;;;;;;;;;;;;;;;10.95;48.36;100710.63;4959040;28;98219;-69
2022/10/21 00:29:21;;;;;;;;;;;;;;;10.97;48.54;100698.50;4936158;28;98188;-65
2022/10/21 00:31:47;;;;;;;;;;;;;;;10.98;48.32;100708.22;4946613;28;97978;-65
2022/10/21 00:34:13;;;;;;;;;;;;;;;11.00;48.51;100703.38;4936519;28;103539;-68
2022/10/21 00:36:39;;;;;;;;;;;;;;;11.01;48.39;100688.00;4952531;28;127840;-65
2022/10/21 00:39:05;;;;;;;;;;;;;;;11.00;48.39;100680.97;4943069;28;98167;-65
2022/10/21 00:41:31;;;;;;;;;;;;;;;11.00;48.47;100681.81;4956722;28;129290;-68
2022/10/21 00:44:04;;;;;;;;;;;;;;;11.00;48.78;100679.09;4945375;28;98376;-69
2022/10/21 00:46:51;;;;;;;;;;;;;;;10.98;48.32;100681.25;4942790;28;108796;-68
2022/10/21 00:49:18;;;;;;;;;;;;;;;10.98;48.71;100677.72;4934597;28;98311;-65
2022/10/21 00:51:45;;;;;;;;;;;;;;;10.97;48.35;100676.94;4956997;28;104712;-68
2022/10/21 00:54:11;;;;;;;;;;;;;;;10.98;48.62;100669.66;4959385;28;98434;-68
2022/10/21 00:56:37;;;;;;;;;;;;;;;10.97;48.63;100665.34;4953778;28;98110;-64
2022/10/21 00:59:04;;;;;;;;;;;;;;;10.98;48.77;100666.94;4953210;28;98131;-69
2022/10/21 01:01:32;;;;;;;;;;;;;;;10.97;49.00;100663.44;4957386;28;98006;-69
2022/10/21 01:04:00;;;;;;;;;;;;;;;10.97;48.57;100649.97;4947482;28;98124;-68
2022/10/21 01:06:26;;;;;;;;;;;;;;;10.96;48.82;100651.00;4928871;28;98449;-68
2022/10/21 01:08:53;;;;;;;;;;;;;;;10.96;48.40;100647.50;4932511;28;98275;-64
2022/10/21 01:11:20;;;;;;;;;;;;;;;10.97;48.77;100651.84;4950729;28;98126;-68
2022/10/21 01:14:06;;;;;;;;;;;;;;;10.98;48.58;100650.75;4943186;28;97827;-64
2022/10/21 01:16:42;;;;;;;;;;;;;;;10.98;48.89;100659.66;4942754;28;98064;-69
2022/10/21 01:19:37;;;;;;;;;;;;;;;10.98;49.16;100654.25;4956685;28;97923;-69
2022/10/21 01:22:10;;;;;;;;;;;;;;;11.00;48.56;100662.09;4953703;28;98321;-65
2022/10/21 01:24:46;;;;;;;;;;;;;;;10.99;48.67;100639.69;4945964;28;98249;-64
2022/10/21 01:27:34;;;;;;;;;;;;;;;10.97;48.50;100641.88;4961598;28;98237;-68
2022/10/21 01:30:07;;;;;;;;;;;;;;;10.96;49.05;100626.72;4963537;28;98854;-64
2022/10/21 01:32:42;;;;;;;;;;;;;;;10.93;48.98;100608.41;4955701;27;98124;-64
2022/10/21 01:35:25;;;;;;;;;;;;;;;10.89;48.69;100610.03;4946921;28;97976;-64
2022/10/21 01:38:10;;;;;;;;;;;;;;;10.86;49.04;100632.13;4941658;28;98229;-64
2022/10/21 01:40:44;;;;;;;;;;;;;;;10.84;48.87;100617.25;4972197;28;98099;-64
2022/10/21 01:43:24;;;;;;;;;;;;;;;10.82;48.82;100596.78;4960517;28;100534;-64
2022/10/21 01:45:59;;;;;;;;;;;;;;;10.82;48.98;100577.09;4940769;28;98197;-65
2022/10/21 01:48:33;;;;;;;;;;;;;;;10.82;48.69;100558.22;4943256;28;115318;-65
2022/10/21 01:51:01;;;;;;;;;;;;;;;10.81;48.53;100551.22;4947325;28;114467;-65
2022/10/21 01:53:30;;;;;;;;;;;;;;;10.82;48.85;100552.81;4946938;28;98130;-68
2022/10/21 01:55:58;;;;;;;;;;;;;;;10.81;49.15;100552.03;4944014;28;98085;-68
2022/10/21 01:58:26;;;;;;;;;;;;;;;10.80;48.97;100528.81;4950820;28;98096;-65
2022/10/21 02:00:52;;;;;;;;;;;;;;;10.78;48.85;100522.09;4947299;28;100358;-65
2022/10/21 02:03:22;;;;;;;;;;;;;;;10.74;48.96;100545.25;4944694;28;97943;-64
2022/10/21 02:05:48;;;;;;;;;;;;;;;10.70;49.22;100544.97;4943464;28;98184;-68
2022/10/21 02:08:14;;;;;;;;;;;;;;;10.68;48.61;100549.81;4922482;28;111925;-65
2022/10/21 02:10:43;;;;;;;;;;;;;;;10.68;49.21;100540.91;4944977;28;100135;-65
2022/10/21 02:13:10;;;;;;;;;;;;;;;10.67;48.89;100539.31;4944657;28;113216;-65
2022/10/21 02:15:36;;;;;;;;;;;;;;;10.65;48.87;100530.66;4957508;28;98078;-68
2022/10/21 02:18:09;;;;;;;;;;;;;;;10.65;49.07;100530.66;4944429;28;98104;-68
2022/10/21 02:20:40;;;;;;;;;;;;;;;10.63;49.24;100530.13;4961605;28;100174;-69
2022/10/21 02:23:07;;;;;;;;;;;;;;;10.62;48.92;100528.53;4954930;28;99282;-69
2022/10/21 02:25:36;;;;;;;;;;;;;;;10.62;48.89;100534.72;4945764;28;98280;-69
2022/10/21 02:28:02;;;;;;;;;;;;;;;10.62;49.36;100528.53;4945634;28;98601;-68
2022/10/21 02:30:31;;;;;;;;;;;;;;;10.61;49.01;100524.19;4939210;28;99530;-65
2022/10/21 02:33:03;;;;;;;;;;;;;;;10.61;49.47;100510.69;4957125;28;97933;-65
2022/10/21 02:35:37;;;;;;;;;;;;;;;10.61;49.39;100502.63;4950381;28;98227;-68
2022/10/21 02:38:05;;;;;;;;;;;;;;;10.62;49.31;100512.34;4974093;28;98361;-65
2022/10/21 02:40:37;;;;;;;;;;;;;;;10.65;48.78;100517.19;4939997;28;98102;-65
2022/10/21 02:43:11;;;;;;;;;;;;;;;10.66;49.24;100524.22;4961596;28;98028;-65
2022/10/21 02:45:37;;;;;;;;;;;;;;;10.67;49.32;100528.53;4943980;28;98148;-65
2022/10/21 02:48:03;;;;;;;;;;;;;;;10.69;49.02;100520.97;4941801;28;102974;-64
2022/10/21 02:50:29;;;;;;;;;;;;;;;10.71;49.09;100529.63;4953847;28;98173;-68
2022/10/21 02:52:55;;;;;;;;;;;;;;;10.73;48.98;100538.25;4941652;28;99119;-65
2022/10/21 02:55:21;;;;;;;;;;;;;;;10.74;48.82;100547.97;4945585;28;98260;-65
2022/10/21 02:57:47;;;;;;;;;;;;;;;10.75;49.14;100557.66;4946006;28;98548;-68
2022/10/21 03:00:14;;;;;;;;;;;;;;;10.75;49.32;100558.47;4944597;28;97858;-65
2022/10/21 03:02:41;;;;;;;;;;;;;;;10.75;49.49;100553.06;4958605;28;101343;-69
2022/10/21 03:05:08;;;;;;;;;;;;;;;10.76;49.45;100543.09;4939837;28;98393;-69
2022/10/21 03:07:34;;;;;;;;;;;;;;;10.76;49.24;100543.09;4946121;28;98248;-65
2022/10/21 03:10:00;;;;;;;;;;;;;;;10.74;48.94;100532.59;4948079;28;98005;-65
2022/10/21 03:12:26;;;;;;;;;;;;;;;10.72;48.87;100532.03;4944713;28;97891;-69
2022/10/21 03:14:52;;;;;;;;;;;;;;;10.70;49.09;100523.41;4942770;28;98036;-67
2022/10/21 03:17:19;;;;;;;;;;;;;;;10.67;49.04;100518.53;4947180;28;99770;-68
2022/10/21 03:19:45;;;;;;;;;;;;;;;10.66;49.45;100516.13;4939456;28;98155;-69
2022/10/21 03:22:12;;;;;;;;;;;;;;;10.64;49.22;100518.25;4944286;28;97697;-69
2022/10/21 03:24:38;;;;;;;;;;;;;;;10.64;48.88;100523.66;4935967;28;98238;-68
2022/10/21 03:27:04;;;;;;;;;;;;;;;10.64;49.39;100518.25;4955113;28;99418;-64
2022/10/21 03:29:31;;;;;;;;;;;;;;;10.64;49.27;100504.78;4942970;28;117831;-68
2022/10/21 03:31:57;;;;;;;;;;;;;;;10.66;49.61;100510.72;4949675;28;122881;-68
2022/10/21 03:34:23;;;;;;;;;;;;;;;10.67;49.01;100520.44;4939353;28;98421;-68
2022/10/21 03:36:49;;;;;;;;;;;;;;;10.69;49.07;100516.41;4944377;28;98098;-64
2022/10/21 03:39:15;;;;;;;;;;;;;;;10.71;49.46;100513.44;4954385;28;101006;-64
2022/10/21 03:41:41;;;;;;;;;;;;;;;10.73;49.16;100520.19;4948299;28;99223;-64
2022/10/21 03:44:09;;;;;;;;;;;;;;;10.75;49.10;100507.25;4945380;28;98181;-68
2022/10/21 03:46:35;;;;;;;;;;;;;;;10.76;49.12;100510.75;4939061;28;98056;-68
2022/10/21 03:49:01;;;;;;;;;;;;;;;10.77;48.88;100513.19;4918770;28;98050;-68
2022/10/21 03:51:27;;;;;;;;;;;;;;;10.79;49.55;100499.41;4960643;28;99402;-64
2022/10/21 03:53:53;;;;;;;;;;;;;;;10.80;49.45;100496.44;4946659;27;98111;-64
2022/10/21 03:56:19;;;;;;;;;;;;;;;10.83;49.53;100489.72;4943985;28;129395;-63
2022/10/21 03:58:45;;;;;;;;;;;;;;;10.84;49.29;100469.75;4944013;28;97825;-68
2022/10/21 04:01:12;;;;;;;;;;;;;;;10.86;49.38;100464.13;4937536;28;98277;-64
2022/10/21 04:03:39;;;;;;;;;;;;;;;10.86;49.35;100462.22;4948984;28;98050;-68
2022/10/21 04:06:05;;;;;;;;;;;;;;;10.85;49.51;100459.81;4946400;28;98286;-68
2022/10/21 04:08:31;;;;;;;;;;;;;;;10.86;49.36;100459.53;4954580;28;98154;-68
2022/10/21 04:10:57;;;;;;;;;;;;;;;10.86;49.04;100461.41;4941706;28;99653;-68
2022/10/21 04:13:24;;;;;;;;;;;;;;;10.86;49.18;100469.50;4959544;28;98152;-68
2022/10/21 04:15:50;;;;;;;;;;;;;;;10.86;49.13;100469.50;4945422;28;97937;-69
2022/10/21 04:18:16;;;;;;;;;;;;;;;10.88;49.20;100462.75;4947046;28;97949;-68
2022/10/21 04:20:43;;;;;;;;;;;;;;;10.89;49.46;100460.88;4958668;28;98996;-69
2022/10/21 04:23:10;;;;;;;;;;;;;;;10.88;49.46;100465.44;4949140;28;98661;-71
2022/10/21 04:25:37;;;;;;;;;;;;;;;10.89;49.62;100455.50;4953578;28;97994;-72
2022/10/21 04:28:04;;;;;;;;;;;;;;;10.90;49.40;100463.31;4953977;28;97965;-72
2022/10/21 04:30:31;;;;;;;;;;;;;;;10.91;49.61;100454.13;4922707;28;98036;-72
2022/10/21 04:32:57;;;;;;;;;;;;;;;10.94;49.21;100450.09;4945303;28;98271;-72
2022/10/21 04:35:24;;;;;;;;;;;;;;;10.95;49.14;100443.59;4951351;28;98122;-73
2022/10/21 04:37:50;;;;;;;;;;;;;;;10.96;49.29;100440.63;4948111;28;98123;-72
2022/10/21 04:40:17;;;;;;;;;;;;;;;10.97;49.51;100438.78;4931197;28;99559;-72
2022/10/21 04:42:48;;;;;;;;;;;;;;;10.99;49.23;100415.03;4948554;27;97953;-71
2022/10/21 04:45:15;;;;;;;;;;;;;;;11.00;49.51;100413.94;4960735;28;98059;-72
2022/10/21 04:47:41;;;;;;;;;;;;;;;11.01;49.48;100410.19;4949484;28;98266;-72
2022/10/21 04:50:07;;;;;;;;;;;;;;;11.02;49.35;100422.56;4948728;28;97848;-73
2022/10/21 04:52:35;;;;;;;;;;;;;;;11.00;49.50;100430.94;4944920;28;98271;-72
2022/10/21 04:55:01;;;;;;;;;;;;;;;11.03;49.13;100421.50;4960925;28;98939;-72
2022/10/21 04:57:28;;;;;;;;;;;;;;;11.03;49.51;100427.69;4950917;28;99408;-72
2022/10/21 04:59:55;;;;;;;;;;;;;;;11.03;49.31;100410.69;4947342;28;98517;-72
2022/10/21 05:02:24;;;;;;;;;;;;;;;11.02;49.67;100404.50;4944918;28;98056;-72
2022/10/21 05:04:50;;;;;;;;;;;;;;;11.03;49.58;100395.31;4945559;28;98013;-66
2022/10/21 05:07:16;;;;;;;;;;;;;;;11.05;49.41;100393.19;4942138;28;98280;-66
2022/10/21 05:09:43;;;;;;;;;;;;;;;11.04;49.52;100375.38;4912146;28;99654;-66
2022/10/21 05:12:10;;;;;;;;;;;;;;;11.06;49.58;100375.09;4957373;28;98872;-65
2022/10/21 05:14:36;;;;;;;;;;;;;;;11.05;49.40;100385.09;4958141;28;98344;-66
2022/10/21 05:17:02;;;;;;;;;;;;;;;11.08;49.42;100389.09;4944433;28;98143;-66
2022/10/21 05:19:30;;;;;;;;;;;;;;;11.10;49.26;100394.25;4948286;28;99553;-66
2022/10/21 05:21:56;;;;;;;;;;;;;;;11.09;49.41;100398.84;4952808;28;98223;-66
2022/10/21 05:24:22;;;;;;;;;;;;;;;11.10;49.70;100392.34;4927822;28;99539;-66
2022/10/21 05:26:48;;;;;;;;;;;;;;;11.12;49.26;100397.47;4950369;28;98068;-66
2022/10/21 05:29:14;;;;;;;;;;;;;;;11.12;49.58;100403.69;4939481;28;97909;-66
2022/10/21 05:31:40;;;;;;;;;;;;;;;11.13;49.22;100389.13;4947286;28;98237;-66
2022/10/21 05:34:06;;;;;;;;;;;;;;;11.15;49.83;100378.03;4945723;28;98396;-66
2022/10/21 05:36:51;;;;;;;;;;;;;;;11.13;49.52;100372.13;4952357;28;98060;-66
2022/10/21 05:39:20;;;;;;;;;;;;;;;11.14;49.34;100368.34;4945890;28;98277;-73
2022/10/21 05:41:46;;;;;;;;;;;;;;;11.15;49.63;100372.66;4952888;28;97983;-71
2022/10/21 05:44:13;;;;;;;;;;;;;;;11.16;49.25;100374.25;4924372;28;98255;-71
2022/10/21 05:46:39;;;;;;;;;;;;;;;11.17;49.58;100384.00;4928343;28;97891;-71
2022/10/21 05:49:06;;;;;;;;;;;;;;;11.17;49.21;100397.47;4939889;28;99819;-66
2022/10/21 05:51:32;;;;;;;;;;;;;;;11.18;49.35;100375.59;4943710;28;98035;-66
2022/10/21 05:53:58;;;;;;;;;;;;;;;11.21;49.16;100372.38;4942053;28;98227;-72
2022/10/21 05:56:24;;;;;;;;;;;;;;;11.21;49.29;100364.28;4935620;28;97982;-72
2022/10/21 05:58:50;;;;;;;;;;;;;;;11.24;49.47;100373.72;4955836;28;99210;-66
2022/10/21 06:01:17;;;;;;;;;;;;;;;11.26;49.54;100379.63;4950671;28;97957;-66
2022/10/21 06:03:43;;;;;;;;;;;;;;;11.27;49.05;100378.56;4938426;28;98268;-71
2022/10/21 06:06:10;;;;;;;;;;;;;;;11.28;49.25;100386.38;4958267;28;98096;-72
2022/10/21 06:08:38;;;;;;;;;;;;;;;11.29;49.51;100388.00;4952305;28;99926;-72
2022/10/21 06:11:11;;;;;;;;;;;;;;;11.30;49.39;100391.50;4954297;28;98186;-71
2022/10/21 06:13:38;;;;;;;;;;;;;;;11.30;49.34;100383.41;4946384;28;98491;-72
2022/10/21 06:16:05;;;;;;;;;;;;;;;11.31;49.06;100369.63;4954602;28;98064;-71
2022/10/21 06:18:31;;;;;;;;;;;;;;;11.38;49.03;100376.63;4937806;28;98451;-72
2022/10/21 06:20:57;;;;;;;;;;;;;;;11.39;49.46;100373.66;4942488;28;97950;-71
2022/10/21 06:23:23;;;;;;;;;;;;;;;11.40;49.27;100369.91;4936950;28;97881;-65
2022/10/21 06:25:55;;;;;;;;;;;;;;;11.40;48.98;100372.59;4948739;28;98114;-66
2022/10/21 06:28:21;;;;;;;;;;;;;;;11.40;48.96;100386.09;4951322;28;99666;-71
2022/10/21 06:30:48;;;;;;;;;;;;;;;11.39;49.26;100389.03;4930103;28;98226;-66
2022/10/21 06:33:13;;;;;;;;;;;;;;;11.39;49.35;100376.34;4950660;28;98952;-71
2022/10/21 06:35:40;;;;;;;;;;;;;;;11.41;49.31;100397.69;4956888;28;98214;-71
2022/10/21 06:38:06;;;;;;;;;;;;;;;11.42;49.18;100402.81;4936041;28;98077;-66
2022/10/21 06:40:32;;;;;;;;;;;;;;;11.44;49.42;100403.34;4940232;28;98174;-66
2022/10/21 06:42:58;;;;;;;;;;;;;;;11.49;49.14;100395.22;4940003;28;98121;-66
2022/10/21 06:45:24;;;;;;;;;;;;;;;11.56;49.03;100403.03;4942750;28;103659;-66
2022/10/21 06:47:50;;;;;;;;;;;;;;;11.65;49.12;100397.88;4933204;28;98083;-65
2022/10/21 06:50:17;;;;;;;;;;;;;;;11.73;48.84;100389.19;4939108;28;98059;-66
2022/10/21 06:52:43;;;;;;;;;;;;;;;11.80;48.98;100382.41;4929207;28;97996;-65
2022/10/21 06:55:09;;;;;;;;;;;;;;;11.86;48.58;100383.22;4943681;28;98296;-66
2022/10/21 06:57:36;;;;;;;;;;;;;;;11.90;49.09;100380.78;4938650;28;98509;-66
2022/10/21 07:00:05;;;;;;;;;;;;;;;11.94;48.83;100384.53;4942751;28;97936;-72
2022/10/21 07:02:31;;;;;;;;;;;;;;;11.97;48.82;100390.19;4939238;28;98547;-72
2022/10/21 07:04:58;;;;;;;;;;;;;;;12.00;48.69;100383.44;4939787;28;98058;-72
2022/10/21 07:07:24;;;;;;;;;;;;;;;12.06;48.72;100385.00;4940900;28;98018;-71
2022/10/21 07:09:50;;;;;;;;;;;;;;;12.14;48.61;100403.34;4947265;28;97990;-72
2022/10/21 07:12:17;;;;;;;;;;;;;;;12.21;48.60;100401.13;4945363;28;98986;-73
2022/10/21 07:14:46;;;;;;;;;;;;;;;12.31;48.55;100396.78;4946841;28;98294;-71
2022/10/21 07:17:13;;;;;;;;;;;;;;;12.40;48.51;100405.91;4947004;28;98306;-72
2022/10/21 07:19:39;;;;;;;;;;;;;;;12.52;48.45;100398.22;4946534;28;98444;-72
2022/10/21 07:22:05;;;;;;;;;;;;;;;12.62;48.25;100395.47;4946862;28;98017;-66
2022/10/21 07:24:32;;;;;;;;;;;;;;;12.73;48.08;100390.75;4942154;28;98624;-66
2022/10/21 07:26:58;;;;;;;;;;;;;;;12.88;48.05;100400.66;4947777;28;97920;-66
2022/10/21 07:29:24;;;;;;;;;;;;;;;13.04;47.86;100391.31;4936339;28;97907;-66
2022/10/21 07:31:52;;;;;;;;;;;;;;;13.16;47.86;100405.25;4960115;28;98839;-66
2022/10/21 07:34:18;;;;;;;;;;;;;;;13.32;47.78;100403.22;4945273;28;98266;-72
2022/10/21 07:36:48;;;;;;;;;;;;;;;13.50;47.61;100393.56;4940105;28;98995;-72
2022/10/21 07:39:16;;;;;;;;;;;;;;;13.68;47.38;100402.84;4942359;28;98032;-71
2022/10/21 07:41:45;;;;;;;;;;;;;;;13.83;47.43;100394.50;4940117;28;98306;-72
2022/10/21 07:44:12;;;;;;;;;;;;;;;13.94;47.20;100390.56;4942448;28;98658;-72
2022/10/21 07:46:39;;;;;;;;;;;;;;;14.03;47.36;100379.09;4943019;28;98083;-72
2022/10/21 07:49:07;;;;;;;;;;;;;;;14.11;47.38;100373.00;4955441;28;98391;-73
2022/10/21 07:51:35;;;;;;;;;;;;;;;14.12;47.60;100361.88;4940140;28;98017;-72
2022/10/21 07:54:01;;;;;;;;;;;;;;;14.18;47.63;100376.97;4937769;28;98198;-72
2022/10/21 07:56:36;;;;;;;;;;;;;;;14.16;47.41;100368.34;4928075;28;99370;-72
2022/10/21 07:59:03;;;;;;;;;;;;;;;14.10;47.53;100368.69;4958975;28;97955;-72
2022/10/21 08:01:30;;;;;;;;;;;;;;;14.13;47.70;100373.53;4959657;28;97923;-72
2022/10/21 08:03:57;;;;;;;;;;;;;;;14.19;47.31;100385.94;4938802;28;98357;-72
2022/10/21 08:06:25;;;;;;;;;;;;;;;14.24;47.56;100383.13;4940281;28;98183;-72
2022/10/21 08:08:51;;;;;;;;;;;;;;;14.35;47.43;100391.94;4951971;28;98265;-72
2022/10/21 08:11:25;;;;;;;;;;;;;;;14.35;47.57;100391.94;4946700;28;98005;-72
2022/10/21 08:13:52;;;;;;;;;;;;;;;14.33;47.46;100385.97;4954742;28;97820;-71
2022/10/21 08:16:18;;;;;;;;;;;;;;;14.28;47.82;100397.72;4945448;28;99221;-72
2022/10/21 08:18:45;;;;;;;;;;;;;;;14.20;47.87;100395.66;4942387;28;98394;-72
2022/10/21 08:21:11;;;;;;;;;;;;;;;14.14;47.90;100396.81;4946023;28;98035;-66
2022/10/21 08:23:37;;;;;;;;;;;;;;;14.11;47.80;100397.41;4939118;28;98824;-66
2022/10/21 08:26:03;;;;;;;;;;;;;;;14.11;47.72;100392.81;4925482;28;98076;-66
2022/10/21 08:28:30;;;;;;;;;;;;;;;14.20;47.73;100385.63;4947655;28;98165;-66
2022/10/21 08:31:08;;;;;;;;;;;;;;;14.78;46.94;100373.63;4936302;28;98123;-67
2022/10/21 08:33:35;;;;;;;;;;;;;;;15.47;46.38;100377.22;4945060;28;97998;-66
2022/10/21 08:36:10;;;;;;;;;;;;;;;15.57;46.69;100378.97;4943850;28;98231;-67
2022/10/21 08:38:36;;;;;;;;;;;;;;;15.49;46.96;100363.38;4945209;28;98195;-66
2022/10/21 08:41:09;;;;;;;;;;;;;;;15.38;46.75;100362.75;4943700;28;98915;-66
2022/10/21 08:43:38;;;;;;;;;;;;;;;15.46;46.74;100362.06;4943252;28;99560;-72
2022/10/21 08:46:10;;;;;;;;;;;;;;;15.89;46.02;100359.03;4945568;28;97960;-72
2022/10/21 08:48:53;;;;;;;;;;;;;;;16.67;45.25;100370.53;4932658;28;97983;-73
2022/10/21 08:51:29;;;;;;;;;;;;;;;16.49;46.04;100354.41;4929685;28;98226;-72
2022/10/21 08:53:59;;;;;;;;;;;;;;;16.15;46.40;100347.56;4954614;28;98131;-73
2022/10/21 08:56:26;;;;;;;;;;;;;;;16.32;46.34;100338.75;4944628;28;98005;-72
2022/10/21 08:58:52;;;;;;;;;;;;;;;16.26;46.61;100346.22;4940733;28;99160;-72
2022/10/21 09:01:26;;;;;;;;;;;;;;;16.44;46.38;100347.97;4932222;28;100625;-72
2022/10/21 09:03:58;;;;;;;;;;;;;;;16.94;46.07;100330.69;4962263;28;98633;-72
2022/10/21 09:06:38;;;;;;;;;;;;;;;17.07;46.05;100329.78;4935527;28;97935;-72
2022/10/21 09:09:31;;;;;;;;;;;;;;;16.96;46.56;100327.66;4946229;28;97933;-72
2022/10/21 09:11:57;;;;;;;;;;;;;;;16.78;46.77;100332.19;4956711;28;100545;-72
2022/10/21 09:14:48;;;;;;;;;;;;;;;16.79;46.58;100329.16;4961363;28;98358;-73
2022/10/21 09:17:36;;;;;;;;;;;;;;;17.48;45.82;100334.09;4958603;28;98289;-73
2022/10/21 09:20:09;;;;;;;;;;;;;;;18.37;45.25;100324.56;4973291;28;98312;-74
2022/10/21 09:22:41;;;;;;;;;;;;;;;19.15;44.90;100318.13;4966604;28;98704;-72
2022/10/21 09:25:21;;;;;;;;;;;;;;;20.07;44.04;100309.22;4977783;28;98099;-74
2022/10/21 09:27:50;;;;;;;;;;;;;;;21.28;42.66;100302.44;4960357;28;98545;-73
2022/10/21 09:30:21;;;;;;;;;;;;;;;20.71;43.72;100303.31;4954842;28;98672;-73
2022/10/21 09:32:49;;;;;;;;;;;;;;;21.45;43.21;100314.34;4964539;27;99018;-73
2022/10/21 09:35:38;;;;;;;;;;;;;;;21.85;43.36;100311.66;4943344;28;97902;-73
2022/10/21 09:38:15;;;;;;;;;;;;;;;23.41;42.13;100313.47;4955186;28;98363;-74
2022/10/21 09:40:42;;;;;;;;;;;;;;;26.44;38.48;100299.38;4971196;28;98299;-74
2022/10/21 09:43:22;;;;;;;;;;;;;;;27.90;37.18;100315.59;4953458;28;98465;-74
2022/10/21 09:45:49;;;;;;;;;;;;;;;27.16;39.01;100308.41;4966526;28;98174;-74
2022/10/21 09:48:19;;;;;;;;;;;;;;;28.44;37.95;100308.28;4941222;28;98224;-74
2022/10/21 09:50:48;;;;;;;;;;;;;;;31.80;34.29;100308.88;4964188;28;98075;-74
2022/10/21 09:53:20;;;;;;;;;;;;;;;32.47;33.85;100310.81;4947692;28;98281;-75
2022/10/21 09:55:48;;;;;;;;;;;;;;;29.35;38.07;100311.53;4952351;28;98276;-75
2022/10/21 09:58:49;;;;;;;;;;;;;;;27.42;41.20;100296.31;4941223;28;98437;-74
2022/10/21 10:01:22;;;;;;;;;;;;;;;26.46;42.36;100288.00;4951716;28;98277;-74
2022/10/21 10:03:51;;;;;;;;;;;;;;;25.88;42.69;100286.53;4958518;28;98640;-74
2022/10/21 10:06:50;;;;;;;;;;;;;;;25.17;43.20;100277.22;4947786;28;98038;-74
2022/10/21 10:09:32;;;;;;;;;;;;;;;24.26;44.16;100273.25;4949764;28;98071;-74
2022/10/21 10:12:25;;;;;;;;;;;;;;;23.19;44.91;100274.47;4943523;28;97860;-74
2022/10/21 10:14:52;;;;;;;;;;;;;;;22.34;45.48;100275.03;4961409;28;98158;-74
2022/10/21 10:17:34;;;;;;;;;;;;;;;21.84;45.70;100268.91;4947595;28;98091;-74
2022/10/21 10:20:03;;;;;;;;;;;;;;;21.40;45.61;100265.25;4961148;28;99437;-73
2022/10/21 10:22:34;;;;;;;;;;;;;;;22.11;44.56;100259.09;4965640;28;98309;-73
2022/10/21 10:25:16;;;;;;;;;;;;;;;23.14;42.90;100257.44;4971046;28;98245;-69
2022/10/21 10:27:47;;;;;;;;;;;;;;;22.23;44.41;100272.78;4969671;28;98114;-74
2022/10/21 10:30:13;;;;;;;;;;;;;;;22.02;44.42;100269.44;4942605;28;97919;-69
2022/10/21 10:32:39;;;;;;;;;;;;;;;22.31;43.84;100271.03;4936456;28;98024;-74
2022/10/21 10:35:07;;;;;;;;;;;;;;;21.89;44.55;100262.38;4942373;28;99976;-69
2022/10/21 10:37:35;;;;;;;;;;;;;;;21.41;44.89;100264.09;4925769;28;117675;-68
2022/10/21 10:40:03;;;;;;;;;;;;;;;20.99;45.27;100248.69;4941289;28;98105;-67
2022/10/21 10:42:32;;;;;;;;;;;;;;;21.12;44.82;100251.41;4953829;28;111777;-68
2022/10/21 10:45:20;;;;;;;;;;;;;;;20.81;45.09;100261.78;4948663;28;98324;-69
2022/10/21 10:47:57;;;;;;;;;;;;;;;20.24;45.61;100268.03;4955042;28;98008;-68
2022/10/21 10:50:48;;;;;;;;;;;;;;;19.78;46.07;100258.94;4926694;28;98253;-68
2022/10/21 10:53:34;;;;;;;;;;;;;;;19.37;46.24;100262.41;4943748;28;98052;-73
2022/10/21 10:56:33;;;;;;;;;;;;;;;19.08;46.59;100279.59;4946674;28;97989;-74
2022/10/21 10:59:10;;;;;;;;;;;;;;;18.76;46.54;100261.91;4960498;28;98120;-68
2022/10/21 11:01:40;;;;;;;;;;;;;;;18.47;46.81;100262.59;4945158;28;97993;-73
2022/10/21 11:04:19;;;;;;;;;;;;;;;18.22;47.06;100265.06;4946995;28;98127;-72
2022/10/21 11:06:59;;;;;;;;;;;;;;;17.97;47.21;100266.69;4943715;28;98174;-74
2022/10/21 11:09:26;;;;;;;;;;;;;;;17.75;47.35;100269.56;4962273;28;98985;-73
2022/10/21 11:11:55;;;;;;;;;;;;;;;17.55;47.45;100258.13;4959471;28;97949;-74
2022/10/21 11:14:21;;;;;;;;;;;;;;;17.43;47.49;100261.47;4945436;28;97988;-68
2022/10/21 11:17:04;;;;;;;;;;;;;;;17.32;47.43;100254.72;4954869;28;99974;-72
2022/10/21 11:20:01;;;;;;;;;;;;;;;17.22;47.42;100249.59;4946507;28;98462;-67
2022/10/21 11:22:54;;;;;;;;;;;;;;;17.19;47.06;100242.03;4953286;28;99020;-67
2022/10/21 11:25:33;;;;;;;;;;;;;;;17.19;47.12;100247.50;4957958;28;98601;-68
2022/10/21 11:28:19;;;;;;;;;;;;;;;17.20;47.03;100243.63;4932592;28;98149;-67
2022/10/21 11:31:04;;;;;;;;;;;;;;;17.26;46.75;100247.84;4958911;28;97983;-68
2022/10/21 11:33:52;;;;;;;;;;;;;;;17.33;46.79;100250.91;4968144;28;98834;-73
2022/10/21 11:36:25;;;;;;;;;;;;;;;17.36;46.72;100247.50;4957557;28;97953;-68
2022/10/21 11:38:54;;;;;;;;;;;;;;;17.36;46.54;100241.28;4968588;28;98112;-68
2022/10/21 11:41:33;;;;;;;;;;;;;;;17.30;46.58;100250.72;4956470;28;98224;-74
2022/10/21 11:44:23;;;;;;;;;;;;;;;17.25;46.76;100242.69;4951120;28;97941;-67
2022/10/21 11:47:15;;;;;;;;;;;;;;;17.18;46.80;100241.25;4906046;28;98054;-74
2022/10/21 11:50:04;;;;;;;;;;;;;;;17.07;46.83;100239.94;4941461;28;98132;-68
2022/10/21 11:53:10;;;;;;;;;;;;;;;17.02;46.97;100245.53;4964982;28;97886;-68
2022/10/21 11:55:39;;;;;;;;;;;;;;;16.99;46.79;100232.53;4953417;28;98414;-74
2022/10/21 11:58:31;;;;;;;;;;;;;;;16.93;46.94;100237.31;4957661;28;97971;-73
2022/10/21 12:01:13;;;;;;;;;;;;;;;16.87;46.91;100246.75;4926461;28;101629;-75
2022/10/21 12:04:02;;;;;;;;;;;;;;;16.82;46.97;100221.56;4969786;27;98442;-73
2022/10/21 12:06:55;;;;;;;;;;;;;;;16.75;47.00;100222.06;4933008;28;99427;-73
2022/10/21 12:09:24;;;;;;;;;;;;;;;16.69;47.16;100229.50;4955856;28;97950;-74
2022/10/21 12:12:29;;;;;;;;;;;;;;;16.64;47.04;100220.69;4972130;28;99914;-74
2022/10/21 12:14:56;;;;;;;;;;;;;;;16.58;47.24;100217.28;4916972;28;97832;-68
2022/10/21 12:17:23;;;;;;;;;;;;;;;16.62;47.29;100218.28;4939694;28;98232;-68
2022/10/21 12:19:58;;;;;;;;;;;;;;;16.65;47.28;100222.28;4944764;28;114582;-68
2022/10/21 12:22:25;;;;;;;;;;;;;;;16.72;47.14;100225.38;4936365;28;98392;-68
2022/10/21 12:25:16;;;;;;;;;;;;;;;16.86;47.09;100220.66;4946532;28;100091;-73
2022/10/21 12:27:41;;;;;;;;;;;;;;;17.12;46.61;100214.47;4931566;28;99162;-68
2022/10/21 12:30:18;;;;;;;;;;;;;;;17.29;46.71;100214.53;4964174;28;98048;-74
2022/10/21 12:33:03;;;;;;;;;;;;;;;17.31;46.83;100206.81;4939825;28;97920;-67
2022/10/21 12:35:51;;;;;;;;;;;;;;;17.25;46.69;100199.94;4956902;28;97951;-74
2022/10/21 12:38:21;;;;;;;;;;;;;;;17.18;47.00;100203.13;4945209;28;98472;-68
2022/10/21 12:40:49;;;;;;;;;;;;;;;17.13;47.02;100207.91;4950384;28;98065;-74
2022/10/21 12:43:22;;;;;;;;;;;;;;;17.10;47.06;100203.09;4931477;28;98679;-69
2022/10/21 12:46:08;;;;;;;;;;;;;;;17.09;47.03;100201.47;4925280;28;98128;-68
2022/10/21 12:48:38;;;;;;;;;;;;;;;17.10;47.19;100200.38;4950465;28;98112;-68
2022/10/21 12:51:07;;;;;;;;;;;;;;;17.12;47.21;100206.31;4942871;28;98134;-74
2022/10/21 12:53:36;;;;;;;;;;;;;;;17.13;47.09;100205.16;4937650;28;98462;-74